createdAt,value
2023-05-21T00:00:03.307Z,14.79
2023-05-21T00:02:45.154Z,14.74
2023-05-21T00:05:18.914Z,14.76
2023-05-21T00:07:49.858Z,14.77
2023-05-21T00:10:22.948Z,14.71
2023-05-21T00:12:56.309Z,14.72
2023-05-21T00:15:28.999Z,14.72
2023-05-21T00:18:01.713Z,14.71
2023-05-21T00:20:35.006Z,14.76
2023-05-21T00:23:06.073Z,14.71
2023-05-21T00:25:38.732Z,14.68
2023-05-21T00:28:13.350Z,14.72
2023-05-21T00:30:46.289Z,14.77
2023-05-21T00:33:18.978Z,14.79
2023-05-21T00:35:51.818Z,14.76
2023-05-21T00:38:28.438Z,14.77
2023-05-21T00:41:01.608Z,14.75
2023-05-21T00:43:34.327Z,14.75
2023-05-21T00:46:07.340Z,14.71
2023-05-21T00:48:40.235Z,14.71
2023-05-21T00:51:13.381Z,14.65
2023-05-21T00:53:47.743Z,14.64
2023-05-21T00:56:22.370Z,14.66
2023-05-21T00:58:57.900Z,14.68
2023-05-21T01:01:34.158Z,14.66
2023-05-21T01:04:07.283Z,14.67
2023-05-21T01:06:40.141Z,14.68
2023-05-21T01:09:12.523Z,14.69
2023-05-21T01:11:48.630Z,14.62
2023-05-21T01:14:22.739Z,14.64
2023-05-21T01:16:56.806Z,14.62
2023-05-21T01:19:33.015Z,14.60
2023-05-21T01:22:09.524Z,14.59
2023-05-21T01:24:42.165Z,14.59
2023-05-21T01:27:15.606Z,14.61
2023-05-21T01:29:48.430Z,14.60
2023-05-21T01:32:28.974Z,14.58
2023-05-21T01:35:06.474Z,14.57
2023-05-21T01:37:46.987Z,14.58
2023-05-21T01:40:27.845Z,14.53
2023-05-21T01:43:01.583Z,14.50
2023-05-21T01:45:36.625Z,14.49
2023-05-21T01:48:12.059Z,14.52
2023-05-21T01:50:46.698Z,14.51
2023-05-21T01:53:19.349Z,14.48
2023-05-21T01:55:52.160Z,14.45
2023-05-21T01:58:27.725Z,14.43
2023-05-21T02:01:00.792Z,14.41
2023-05-21T02:03:33.483Z,14.38
2023-05-21T02:06:06.720Z,14.35
2023-05-21T02:08:38.867Z,14.35
2023-05-21T02:11:11.816Z,14.30
2023-05-21T02:13:46.417Z,14.31
2023-05-21T02:16:20.530Z,14.29
2023-05-21T02:18:57.564Z,14.28
2023-05-21T02:21:30.628Z,14.26
2023-05-21T02:24:03.640Z,14.26
2023-05-21T02:26:39.146Z,14.24
2023-05-21T02:29:11.614Z,14.22
2023-05-21T02:31:44.128Z,14.22
2023-05-21T02:34:17.016Z,14.20
2023-05-21T02:36:55.622Z,14.20
2023-05-21T02:39:28.604Z,14.18
2023-05-21T02:42:01.573Z,14.18
2023-05-21T02:44:33.110Z,14.17
2023-05-21T02:47:06.902Z,14.10
2023-05-21T02:49:39.540Z,14.12
2023-05-21T02:52:12.399Z,14.15
2023-05-21T02:54:46.155Z,14.12
2023-05-21T02:57:19.325Z,14.11
2023-05-21T02:59:52.763Z,14.09
2023-05-21T03:02:27.146Z,14.12
2023-05-21T03:05:01.085Z,14.11
2023-05-21T03:07:34.527Z,14.12
2023-05-21T03:10:10.020Z,14.15
2023-05-21T03:12:42.755Z,14.14
2023-05-21T03:15:16.133Z,14.18
2023-05-21T03:17:49.275Z,14.14
2023-05-21T03:20:21.951Z,14.14
2023-05-21T03:22:55.612Z,14.09
2023-05-21T03:25:28.335Z,14.06
2023-05-21T03:28:01.437Z,14.07
2023-05-21T03:31:03.358Z,13.99
2023-05-21T03:33:45.192Z,13.99
2023-05-21T03:36:33.358Z,13.96
2023-05-21T03:39:06.082Z,13.96
2023-05-21T03:41:39.611Z,13.93
2023-05-21T03:44:20.252Z,13.95
2023-05-21T03:47:02.682Z,13.97
2023-05-21T03:49:38.694Z,13.97
2023-05-21T03:52:12.005Z,13.97
2023-05-21T03:54:44.857Z,13.98
2023-05-21T03:57:17.492Z,13.99
2023-05-21T03:59:51.552Z,13.98
2023-05-21T04:02:25.041Z,13.99
2023-05-21T04:04:58.684Z,14.02
2023-05-21T04:07:32.041Z,14.04
2023-05-21T04:10:07.332Z,14.05
2023-05-21T04:12:39.952Z,14.08
2023-05-21T04:15:14.876Z,14.03
2023-05-21T04:17:50.682Z,14.01
2023-05-21T04:20:23.532Z,14.04
2023-05-21T04:22:57.206Z,14.08
2023-05-21T04:25:30.071Z,14.09
2023-05-21T04:28:03.113Z,14.15
2023-05-21T04:30:36.866Z,14.18
2023-05-21T04:33:11.111Z,14.18
2023-05-21T04:35:44.981Z,14.20
2023-05-21T04:38:21.139Z,14.23
2023-05-21T04:40:56.182Z,14.32
2023-05-21T04:43:29.051Z,14.40
2023-05-21T04:46:03.330Z,14.44
2023-05-21T04:48:36.265Z,14.48
2023-05-21T04:51:09.460Z,14.55
2023-05-21T04:53:43.093Z,14.58
2023-05-21T04:56:16.258Z,14.67
2023-05-21T04:58:49.784Z,14.76
2023-05-21T05:01:22.402Z,14.79
2023-05-21T05:03:55.520Z,14.76
2023-05-21T05:06:28.259Z,14.87
2023-05-21T05:09:04.950Z,15.03
2023-05-21T05:11:39.374Z,15.19
2023-05-21T05:14:12.734Z,15.44
2023-05-21T05:16:44.046Z,15.59
2023-05-21T05:19:17.307Z,15.69
2023-05-21T05:21:50.063Z,15.87
2023-05-21T05:24:22.745Z,15.98
2023-05-21T05:26:55.534Z,16.10
2023-05-21T05:29:28.258Z,16.22
2023-05-21T05:32:00.954Z,16.29
2023-05-21T05:34:34.166Z,16.39
2023-05-21T05:37:07.207Z,16.44
2023-05-21T05:39:40.182Z,16.49
2023-05-21T05:42:13.534Z,16.58
2023-05-21T05:44:46.321Z,16.68
2023-05-21T05:47:19.599Z,16.83
2023-05-21T05:49:50.731Z,16.92
2023-05-21T05:52:23.426Z,16.99
2023-05-21T05:54:56.102Z,17.12
2023-05-21T05:57:27.449Z,17.16
2023-05-21T06:00:04.708Z,17.24
2023-05-21T06:02:45.339Z,17.15
2023-05-21T06:05:19.902Z,17.07
2023-05-21T06:07:52.932Z,17.30
2023-05-21T06:10:25.819Z,17.40
2023-05-21T06:12:59.111Z,17.49
2023-05-21T06:15:31.982Z,17.48
2023-05-21T06:18:05.017Z,17.54
2023-05-21T06:20:37.871Z,17.51
2023-05-21T06:23:10.577Z,17.47
2023-05-21T06:25:43.660Z,17.80
2023-05-21T06:28:18.151Z,17.85
2023-05-21T06:30:51.396Z,17.82
2023-05-21T06:33:25.026Z,18.04
2023-05-21T06:35:58.899Z,17.99
2023-05-21T06:38:29.793Z,18.22
2023-05-21T06:41:02.511Z,18.41
2023-05-21T06:43:50.063Z,18.54
2023-05-21T06:46:39.946Z,18.53
2023-05-21T06:49:15.770Z,18.75
2023-05-21T06:51:50.650Z,18.69
2023-05-21T06:54:24.947Z,18.77
2023-05-21T06:56:59.663Z,19.00
2023-05-21T06:59:32.458Z,19.17
2023-05-21T07:02:06.956Z,19.22
2023-05-21T07:04:41.389Z,19.32
2023-05-21T07:07:17.620Z,19.47
2023-05-21T07:09:50.498Z,19.56
2023-05-21T07:12:23.270Z,19.74
2023-05-21T07:14:59.445Z,19.83
2023-05-21T07:17:32.557Z,19.86
2023-05-21T07:20:08.160Z,20.09
2023-05-21T07:22:45.259Z,20.20
2023-05-21T07:25:18.605Z,20.03
2023-05-21T07:27:51.373Z,19.82
2023-05-21T07:30:24.729Z,19.98
2023-05-21T07:32:58.264Z,20.17
2023-05-21T07:35:31.539Z,20.40
2023-05-21T07:38:04.315Z,20.48
2023-05-21T07:40:37.149Z,20.50
2023-05-21T07:43:11.139Z,20.63
2023-05-21T07:45:44.548Z,20.85
2023-05-21T07:48:17.271Z,20.97
2023-05-21T07:50:58.822Z,20.72
2023-05-21T07:53:33.670Z,20.69
2023-05-21T07:56:09.095Z,20.78
2023-05-21T07:58:44.335Z,20.61
2023-05-21T08:01:17.859Z,20.72
2023-05-21T08:03:50.647Z,20.89
2023-05-21T08:06:27.293Z,21.15
2023-05-21T08:09:00.490Z,21.11
2023-05-21T08:11:34.059Z,21.29
2023-05-21T08:14:07.619Z,21.06
2023-05-21T08:16:38.532Z,21.14
2023-05-21T08:19:13.760Z,21.08
2023-05-21T08:21:46.532Z,21.27
2023-05-21T08:24:19.351Z,21.22
2023-05-21T08:26:52.813Z,21.18
2023-05-21T08:29:25.863Z,21.41
2023-05-21T08:32:00.084Z,21.45
2023-05-21T08:34:36.221Z,21.37
2023-05-21T08:37:31.932Z,21.47
2023-05-21T08:40:15.703Z,21.47
2023-05-21T08:42:49.483Z,21.44
2023-05-21T08:45:29.794Z,21.61
2023-05-21T08:48:06.405Z,21.65
2023-05-21T08:50:39.857Z,21.76
2023-05-21T08:53:28.103Z,21.64
2023-05-21T08:56:03.950Z,21.30
2023-05-21T08:58:46.924Z,21.55
2023-05-21T09:01:24.074Z,21.66
2023-05-21T09:04:19.688Z,21.82
2023-05-21T09:06:58.417Z,22.04
2023-05-21T09:09:56.687Z,22.05
2023-05-21T09:12:32.269Z,22.14
2023-05-21T09:15:06.026Z,22.08
2023-05-21T09:17:41.725Z,22.17
2023-05-21T09:20:34.924Z,22.10
2023-05-21T09:23:12.987Z,22.03
2023-05-21T09:25:49.441Z,21.89
2023-05-21T09:28:28.792Z,22.16
2023-05-21T09:31:05.205Z,22.32
2023-05-21T09:33:47.339Z,22.38
2023-05-21T09:36:21.963Z,22.27
2023-05-21T09:38:54.848Z,22.23
2023-05-21T09:41:36.324Z,22.17
2023-05-21T09:44:13.019Z,22.22
2023-05-21T09:46:46.079Z,22.46
2023-05-21T09:49:29.563Z,22.64
2023-05-21T09:52:04.157Z,22.62
2023-05-21T09:54:38.053Z,22.52
2023-05-21T09:57:11.551Z,22.60
2023-05-21T09:59:44.699Z,22.38
2023-05-21T10:02:26.459Z,22.28
2023-05-21T10:05:01.271Z,22.10
2023-05-21T10:07:37.690Z,22.38
2023-05-21T10:10:17.068Z,22.59
2023-05-21T10:12:53.749Z,22.45
2023-05-21T10:15:30.138Z,22.48
2023-05-21T10:18:05.310Z,22.48
2023-05-21T10:20:39.434Z,22.60
2023-05-21T10:23:14.636Z,22.68
2023-05-21T10:25:48.065Z,22.75
2023-05-21T10:28:22.000Z,22.79
2023-05-21T10:30:55.953Z,22.63
2023-05-21T10:33:31.640Z,22.59
2023-05-21T10:36:06.799Z,22.63
2023-05-21T10:38:40.849Z,22.52
2023-05-21T10:41:15.830Z,22.75
2023-05-21T10:44:02.872Z,22.65
2023-05-21T10:47:06.028Z,22.49
2023-05-21T10:49:57.218Z,22.78
2023-05-21T10:52:58.970Z,22.63
2023-05-21T10:55:49.107Z,22.23
2023-05-21T10:58:54.845Z,22.35
2023-05-21T11:01:34.243Z,22.45
2023-05-21T11:04:07.748Z,22.48
2023-05-21T11:06:40.480Z,22.74
2023-05-21T11:09:18.159Z,22.87
2023-05-21T11:11:54.675Z,22.58
2023-05-21T11:14:41.028Z,22.64
2023-05-21T11:17:18.494Z,22.73
2023-05-21T11:19:52.710Z,22.62
2023-05-21T11:22:28.476Z,22.62
2023-05-21T11:25:05.058Z,22.53
2023-05-21T11:27:39.635Z,22.63
2023-05-21T11:30:17.666Z,22.58
2023-05-21T11:33:17.291Z,22.75
2023-05-21T11:36:02.013Z,22.78
2023-05-21T11:38:35.675Z,22.55
2023-05-21T11:41:11.322Z,22.52
2023-05-21T11:43:47.420Z,22.75
2023-05-21T11:46:21.305Z,22.92
2023-05-21T11:48:56.950Z,22.87
2023-05-21T11:51:32.290Z,22.72
2023-05-21T11:54:10.116Z,22.78
2023-05-21T11:56:48.164Z,22.69
2023-05-21T11:59:22.252Z,22.69
2023-05-21T12:01:56.713Z,22.83
2023-05-21T12:04:33.954Z,22.88
2023-05-21T12:07:08.380Z,22.45
2023-05-21T12:09:44.940Z,22.65
2023-05-21T12:12:19.187Z,22.97
2023-05-21T12:14:55.298Z,22.68
2023-05-21T12:17:32.056Z,22.52
2023-05-21T12:20:08.430Z,22.75
2023-05-21T12:22:45.182Z,22.85
2023-05-21T12:25:20.428Z,22.73
2023-05-21T12:27:58.507Z,22.78
2023-05-21T12:30:41.458Z,22.87
2023-05-21T12:33:14.906Z,22.89
2023-05-21T12:35:50.456Z,22.85
2023-05-21T12:38:23.333Z,22.77
2023-05-21T12:40:56.729Z,22.78
2023-05-21T12:43:35.615Z,22.80
2023-05-21T12:46:08.944Z,22.89
2023-05-21T12:48:41.722Z,22.73
2023-05-21T12:51:12.823Z,22.59
2023-05-21T12:53:46.883Z,22.73
2023-05-21T12:56:19.765Z,22.86
2023-05-21T12:58:54.982Z,22.78
2023-05-21T13:01:28.657Z,22.76
2023-05-21T13:04:01.444Z,22.64
2023-05-21T13:06:43.151Z,22.81
2023-05-21T13:09:16.098Z,22.77
2023-05-21T13:11:46.795Z,23.03
2023-05-21T13:14:19.682Z,23.07
2023-05-21T13:16:50.338Z,23.19
2023-05-21T13:19:23.549Z,23.04
2023-05-21T13:21:57.018Z,23.07
2023-05-21T13:24:30.358Z,23.06
2023-05-21T13:27:03.392Z,23.01
2023-05-21T13:29:38.648Z,22.83
2023-05-21T13:32:11.999Z,23.01
2023-05-21T13:34:44.777Z,23.06
2023-05-21T13:37:17.704Z,23.16
2023-05-21T13:39:48.587Z,23.17
2023-05-21T13:42:21.496Z,22.98
2023-05-21T13:44:54.891Z,23.01
2023-05-21T13:47:28.716Z,23.05
2023-05-21T13:50:01.877Z,23.02
2023-05-21T13:52:37.352Z,23.03
2023-05-21T13:55:12.434Z,22.89
2023-05-21T13:57:47.568Z,22.92
2023-05-21T14:00:20.199Z,23.00
2023-05-21T14:02:53.249Z,22.98
2023-05-21T14:05:26.305Z,23.01
2023-05-21T14:07:59.440Z,23.06
2023-05-21T14:10:32.241Z,22.99
2023-05-21T14:13:15.822Z,23.06
2023-05-21T14:15:51.553Z,23.11
2023-05-21T14:18:22.571Z,23.12
2023-05-21T14:20:55.383Z,23.09
2023-05-21T14:23:28.391Z,23.00
2023-05-21T14:25:59.183Z,22.78
2023-05-21T14:28:31.955Z,22.56
2023-05-21T14:31:04.743Z,22.58
2023-05-21T14:33:39.126Z,22.50
2023-05-21T14:36:12.150Z,22.65
2023-05-21T14:38:45.796Z,22.72
2023-05-21T14:41:18.545Z,22.74
2023-05-21T14:43:51.284Z,22.69
2023-05-21T14:46:25.826Z,22.71
2023-05-21T14:49:04.088Z,22.81
2023-05-21T14:51:42.029Z,22.88
2023-05-21T14:54:15.683Z,22.93
2023-05-21T14:56:49.390Z,22.90
2023-05-21T14:59:24.543Z,22.95
2023-05-21T15:02:00.434Z,22.97
2023-05-21T15:04:37.438Z,22.85
2023-05-21T15:07:13.077Z,22.66
2023-05-21T15:09:51.473Z,22.62
2023-05-21T15:12:33.027Z,22.51
2023-05-21T15:15:13.758Z,22.59
2023-05-21T15:17:49.206Z,22.74
2023-05-21T15:20:27.696Z,22.73
2023-05-21T15:25:39.491Z,22.55
2023-05-21T15:28:14.900Z,22.60
2023-05-21T15:30:51.196Z,22.73
2023-05-21T15:33:25.261Z,22.70
2023-05-21T15:36:03.350Z,22.57
2023-05-21T15:38:37.550Z,22.56
2023-05-21T15:41:13.945Z,22.64
2023-05-21T15:43:51.449Z,22.71
2023-05-21T15:46:24.397Z,22.78
2023-05-21T15:48:58.339Z,22.72
2023-05-21T15:51:35.361Z,22.67
2023-05-21T15:54:10.185Z,22.53
2023-05-21T15:56:46.128Z,22.48
2023-05-21T15:59:22.755Z,22.41
2023-05-21T16:01:57.657Z,22.24
2023-05-21T16:04:34.311Z,22.15
2023-05-21T16:07:09.687Z,22.21
2023-05-21T16:09:44.098Z,22.26
2023-05-21T16:12:22.228Z,22.21
2023-05-21T16:14:59.281Z,22.24
2023-05-21T16:17:40.461Z,22.18
2023-05-21T16:20:16.593Z,22.11
2023-05-21T16:22:50.480Z,22.00
2023-05-21T16:25:26.751Z,21.91
2023-05-21T16:27:59.659Z,21.94
2023-05-21T16:30:32.893Z,21.95
2023-05-21T16:33:07.352Z,22.00
2023-05-21T16:35:40.069Z,21.94
2023-05-21T16:38:17.656Z,21.97
2023-05-21T16:40:51.689Z,21.85
2023-05-21T16:43:25.226Z,21.75
2023-05-21T16:45:58.027Z,21.66
2023-05-21T16:48:33.293Z,21.61
2023-05-21T16:51:06.273Z,21.63
2023-05-21T16:53:40.052Z,21.56
2023-05-21T16:56:12.919Z,21.49
2023-05-21T16:58:44.027Z,21.44
2023-05-21T17:01:16.506Z,21.20
2023-05-21T17:03:49.656Z,21.09
2023-05-21T17:06:20.443Z,21.17
2023-05-21T17:08:53.352Z,21.05
2023-05-21T17:11:26.005Z,21.02
2023-05-21T17:13:59.250Z,20.97
2023-05-21T17:16:30.007Z,20.88
2023-05-21T17:19:03.526Z,20.73
2023-05-21T17:21:38.202Z,20.77
2023-05-21T17:24:11.246Z,20.77
2023-05-21T17:26:41.992Z,20.77
2023-05-21T17:29:15.505Z,20.71
2023-05-21T17:31:48.245Z,20.71
2023-05-21T17:34:21.830Z,20.69
2023-05-21T17:36:55.720Z,20.64
2023-05-21T17:39:29.017Z,20.59
2023-05-21T17:42:01.849Z,20.49
2023-05-21T17:44:35.330Z,20.36
2023-05-21T17:47:09.649Z,20.19
2023-05-21T17:49:44.816Z,20.11
2023-05-21T17:52:17.640Z,20.10
2023-05-21T17:54:50.718Z,20.04
2023-05-21T17:57:22.878Z,19.96
2023-05-21T17:59:58.949Z,19.84
2023-05-21T18:02:33.157Z,19.81
2023-05-21T18:05:10.315Z,19.79
2023-05-21T18:07:45.726Z,19.75
2023-05-21T18:10:21.648Z,19.67
2023-05-21T18:12:57.083Z,19.60
2023-05-21T18:15:34.290Z,19.52
2023-05-21T18:18:08.619Z,19.47
2023-05-21T18:20:44.397Z,19.38
2023-05-21T18:23:20.323Z,19.33
2023-05-21T18:25:54.517Z,19.26
2023-05-21T18:28:32.742Z,19.19
2023-05-21T18:31:08.659Z,19.11
2023-05-21T18:33:43.271Z,19.04
2023-05-21T18:36:19.347Z,18.96
2023-05-21T18:38:54.449Z,18.87
2023-05-21T18:41:28.826Z,18.80
2023-05-21T18:44:02.423Z,18.74
2023-05-21T18:46:38.833Z,18.62
2023-05-21T18:49:12.518Z,18.56
2023-05-21T18:51:47.748Z,18.49
2023-05-21T18:54:20.419Z,18.36
2023-05-21T18:56:54.477Z,18.13
2023-05-21T18:59:33.102Z,17.85
2023-05-21T19:02:09.446Z,17.55
2023-05-21T19:04:43.994Z,17.24
2023-05-21T19:07:17.654Z,17.11
2023-05-21T19:09:53.919Z,17.06
2023-05-21T19:12:27.653Z,17.06
2023-05-21T19:15:02.406Z,17.02
2023-05-21T19:17:37.116Z,16.91
2023-05-21T19:20:11.594Z,16.79
2023-05-21T19:22:46.368Z,16.68
2023-05-21T19:25:19.245Z,16.56
2023-05-21T19:27:53.385Z,16.60
2023-05-21T19:30:27.578Z,16.62
2023-05-21T19:33:01.824Z,16.62
2023-05-21T19:35:35.402Z,16.63
2023-05-21T19:38:08.805Z,16.58
2023-05-21T19:40:39.840Z,16.56
2023-05-21T19:43:13.317Z,16.49
2023-05-21T19:45:46.332Z,16.44
2023-05-21T19:48:19.405Z,16.33
2023-05-21T19:50:52.381Z,16.16
2023-05-21T19:53:28.199Z,15.98
2023-05-21T19:56:01.241Z,15.81
2023-05-21T19:58:35.170Z,15.76
2023-05-21T20:01:06.727Z,15.67
2023-05-21T20:03:43.523Z,15.48
2023-05-21T20:06:19.405Z,15.39
2023-05-21T20:08:56.120Z,15.32
2023-05-21T20:11:28.805Z,15.29
2023-05-21T20:14:02.802Z,15.28
2023-05-21T20:16:35.440Z,15.28
2023-05-21T20:19:11.375Z,15.25
2023-05-21T20:21:45.720Z,15.23
2023-05-21T20:24:20.005Z,15.22
2023-05-21T20:26:52.540Z,15.13
2023-05-21T20:29:25.547Z,15.13
2023-05-21T20:31:58.294Z,15.09
2023-05-21T20:34:31.305Z,15.04
2023-05-21T20:37:03.924Z,15.02
2023-05-21T20:39:38.692Z,15.01
2023-05-21T20:42:15.428Z,14.98
2023-05-21T20:44:50.106Z,14.93
2023-05-21T20:47:23.681Z,14.88
2023-05-21T20:49:58.278Z,14.83
2023-05-21T20:52:32.661Z,14.83
2023-05-21T20:55:06.655Z,14.84
2023-05-21T20:57:39.815Z,14.86
2023-05-21T21:00:16.258Z,14.86
2023-05-21T21:02:50.092Z,14.89
2023-05-21T21:05:24.612Z,14.89
2023-05-21T21:07:57.411Z,14.81
2023-05-21T21:10:30.489Z,14.72
2023-05-21T21:13:03.956Z,14.69
2023-05-21T21:15:37.582Z,14.65
2023-05-21T21:18:14.063Z,14.64
2023-05-21T21:20:49.967Z,14.64
2023-05-21T21:23:22.915Z,14.63
2023-05-21T21:25:56.245Z,14.57
2023-05-21T21:28:28.818Z,14.46
2023-05-21T21:31:01.587Z,14.46
2023-05-21T21:33:34.489Z,14.42
2023-05-21T21:36:07.933Z,14.38
2023-05-21T21:38:40.562Z,14.38
2023-05-21T21:41:13.610Z,14.34
2023-05-21T21:43:46.287Z,14.27
2023-05-21T21:46:19.243Z,14.25
2023-05-21T21:48:52.008Z,14.24
2023-05-21T21:51:27.708Z,14.20
2023-05-21T21:54:00.351Z,14.15
2023-05-21T21:56:33.318Z,14.18
2023-05-21T21:59:06.129Z,14.21
2023-05-21T22:01:39.431Z,14.20
2023-05-21T22:04:10.310Z,14.18
2023-05-21T22:06:45.621Z,14.07
2023-05-21T22:09:18.883Z,14.12
2023-05-21T22:11:49.628Z,14.13
2023-05-21T22:14:21.983Z,14.05
2023-05-21T22:16:55.649Z,14.08
2023-05-21T22:19:28.440Z,14.08
2023-05-21T22:22:02.470Z,14.06
2023-05-21T22:24:35.362Z,14.06
2023-05-21T22:27:08.715Z,14.02
2023-05-21T22:29:41.654Z,14.01
2023-05-21T22:32:14.507Z,13.99
2023-05-21T22:34:47.112Z,13.96
2023-05-21T22:37:19.801Z,13.87
2023-05-21T22:39:52.483Z,13.88
2023-05-21T22:42:25.465Z,13.88
2023-05-21T22:44:58.233Z,13.88
2023-05-21T22:47:31.007Z,13.89
2023-05-21T22:50:04.849Z,13.86
2023-05-21T22:52:39.871Z,13.82
2023-05-21T22:55:12.901Z,13.80
2023-05-21T22:57:46.669Z,13.80
2023-05-21T23:00:20.682Z,13.80
2023-05-21T23:02:54.724Z,13.82
2023-05-21T23:05:28.319Z,13.80
2023-05-21T23:07:59.276Z,13.74
2023-05-21T23:10:31.761Z,13.66
2023-05-21T23:13:04.581Z,13.72
2023-05-21T23:15:39.208Z,13.75
2023-05-21T23:18:12.189Z,13.75
2023-05-21T23:20:44.815Z,13.77
2023-05-21T23:23:17.810Z,13.77
2023-05-21T23:25:52.370Z,13.80
2023-05-21T23:28:25.120Z,13.81
2023-05-21T23:30:59.430Z,13.80
2023-05-21T23:33:32.228Z,13.82
2023-05-21T23:36:05.010Z,13.82
2023-05-21T23:38:39.211Z,13.79
2023-05-21T23:41:11.817Z,13.75
2023-05-21T23:43:45.322Z,13.75
2023-05-21T23:46:17.625Z,13.70
2023-05-21T23:48:50.329Z,13.67
2023-05-21T23:51:21.736Z,13.68
2023-05-21T23:53:54.903Z,13.60
2023-05-21T23:56:30.640Z,13.65
2023-05-21T23:59:05.409Z,13.67
